M/V Pat Voss — WDE7886 — position and weather

sailwx.info

Track history (hours):
 
Tides and Currents Weather Stations Pressure Air Temp Water Temp Dewpoint Dewpoint Depression Visibility Wind Speed Wind Dir Waves Ship Positions

M/V Pat Voss

Owner: Blessey Enterprises, Inc., Harahan, LA. More information available from US FCC via Universal Licensing System and Coast Guard Vessel Documentation Center.

Last reported at 2018-Jan-02 21:37 UTC. Time now 2018-Jan-18 17:39 UTC.
Position N 32°00' W 091°05'.
Warning: this ship's position is 15 days out of date.

Length 29 m; draft 2.9 m.

Type: Towing. MMSI: 367398930.

Date/timePositionNaut miles runAvg speedWind from/ knotsBaromVisibWave heightAir tempDewpointWater temp
2018-Jan-02 21:37N 32°00' W 091°05'110.0
2018-Jan-02 21:29N 32°01' W 091°04'4 8.5
2018-Jan-02 21:00N 32°05' W 091°05'3 5.0
2018-Jan-02 20:29N 32°08' W 091°04'4 7.7
2018-Jan-02 20:01N 32°09' W 091°00'5 9.6
2018-Jan-02 19:31N 32°14' W 090°59'5 9.5
2018-Jan-02 19:00N 32°18' W 090°56'3 6.3
2018-Jan-02 18:31N 32°21' W 090°55'1 2.4
2018-Jan-02 18:01N 32°21' W 090°57'0 0.0
2018-Jan-02 17:31N 32°21' W 090°57'0 0.0
2018-Jan-02 17:01N 32°21' W 090°57'0 0.0
2018-Jan-02 16:31N 32°21' W 090°57'0 0.0
2018-Jan-02 16:01N 32°21' W 090°57'0 0.0
2018-Jan-02 15:31N 32°21' W 090°57'0 0.0
2018-Jan-02 15:01N 32°21' W 090°57'0 0.0
2018-Jan-02 14:30N 32°21' W 090°57'0 0.0
2018-Jan-02 14:01N 32°21' W 090°57'0 0.0
2018-Jan-02 13:31N 32°21' W 090°57'1 2.4
2018-Jan-02 13:01N 32°21' W 090°58'3 6.9
2018-Jan-02 12:30N 32°24' W 090°59'5 9.3
2018-Jan-02 12:01N 32°27' W 091°04'4 8.7
2018-Jan-02 11:31N 32°30' W 091°07'4 8.9
2018-Jan-02 11:00N 32°35' W 091°07'5 9.1
2018-Jan-02 10:30N 32°39' W 091°09'  
Track history (hours):
 
Tides and Currents Weather Stations Pressure Air Temp Water Temp Dewpoint Dewpoint Depression Visibility Wind Speed Wind Dir Waves Ship Positions

M/V Pat Voss

Owner: Blessey Enterprises, Inc., Harahan, LA. More information available from US FCC via Universal Licensing System and Coast Guard Vessel Documentation Center.

Last reported at 2018-Jan-02 21:37 UTC. Time now 2018-Jan-18 17:39 UTC.
Position N 32°00' W 091°05'.
Warning: this ship's position is 15 days out of date.

Length 29 m; draft 2.9 m.

Type: Towing. MMSI: 367398930.

Date/timePositionNaut miles runAvg speedWind from/ knotsBaromVisibWave heightAir tempDewpointWater temp
2018-Jan-02 21:37N 32°00' W 091°05'110.0
2018-Jan-02 21:29N 32°01' W 091°04'4 8.5
2018-Jan-02 21:00N 32°05' W 091°05'3 5.0
2018-Jan-02 20:29N 32°08' W 091°04'4 7.7
2018-Jan-02 20:01N 32°09' W 091°00'5 9.6
2018-Jan-02 19:31N 32°14' W 090°59'5 9.5
2018-Jan-02 19:00N 32°18' W 090°56'3 6.3
2018-Jan-02 18:31N 32°21' W 090°55'1 2.4
2018-Jan-02 18:01N 32°21' W 090°57'0 0.0
2018-Jan-02 17:31N 32°21' W 090°57'0 0.0
2018-Jan-02 17:01N 32°21' W 090°57'0 0.0
2018-Jan-02 16:31N 32°21' W 090°57'0 0.0
2018-Jan-02 16:01N 32°21' W 090°57'0 0.0
2018-Jan-02 15:31N 32°21' W 090°57'0 0.0
2018-Jan-02 15:01N 32°21' W 090°57'0 0.0
2018-Jan-02 14:30N 32°21' W 090°57'0 0.0
2018-Jan-02 14:01N 32°21' W 090°57'0 0.0
2018-Jan-02 13:31N 32°21' W 090°57'1 2.4
2018-Jan-02 13:01N 32°21' W 090°58'3 6.9
2018-Jan-02 12:30N 32°24' W 090°59'5 9.3
2018-Jan-02 12:01N 32°27' W 091°04'4 8.7
2018-Jan-02 11:31N 32°30' W 091°07'4 8.9
2018-Jan-02 11:00N 32°35' W 091°07'5 9.1
2018-Jan-02 10:30N 32°39' W 091°09'  

Dump ship's entire track history